createdAt,value
2023-06-30T00:01:04.784Z,63.56
2023-06-30T00:03:05.906Z,63.78
2023-06-30T00:05:06.783Z,64.14
2023-06-30T00:07:00.076Z,64.38
2023-06-30T00:09:00.961Z,64.26
2023-06-30T00:11:01.913Z,64.25
2023-06-30T00:13:02.949Z,64.26
2023-06-30T00:15:03.714Z,64.36
2023-06-30T00:17:03.856Z,64.37
2023-06-30T00:19:04.721Z,64.34
2023-06-30T00:21:05.309Z,64.58
2023-06-30T00:23:06.344Z,64.75
2023-06-30T00:24:55.720Z,65.08
2023-06-30T00:26:32.819Z,65.05
2023-06-30T00:28:33.556Z,65.14
2023-06-30T00:30:20.874Z,64.93
2023-06-30T00:32:21.545Z,64.87
2023-06-30T00:34:22.469Z,64.79
2023-06-30T00:36:17.298Z,64.80
2023-06-30T00:38:17.782Z,64.84
2023-06-30T00:40:18.464Z,64.90
2023-06-30T00:42:17.235Z,65.03
2023-06-30T00:44:10.479Z,65.04
2023-06-30T00:46:10.880Z,65.08
2023-06-30T00:48:11.066Z,64.79
2023-06-30T00:50:11.930Z,64.82
2023-06-30T00:52:12.498Z,64.73
2023-06-30T00:54:13.235Z,64.54
2023-06-30T00:56:13.989Z,64.50
2023-06-30T00:58:14.600Z,64.64
2023-06-30T01:00:07.416Z,64.91
2023-06-30T01:02:08.398Z,64.99
2023-06-30T01:03:54.490Z,65.05
2023-06-30T01:05:55.375Z,65.32
2023-06-30T01:07:55.988Z,65.45
2023-06-30T01:09:55.459Z,65.67
2023-06-30T01:11:45.752Z,65.66
2023-06-30T01:13:46.083Z,65.62
2023-06-30T01:15:47.234Z,65.63
2023-06-30T01:17:41.634Z,65.67
2023-06-30T01:19:36.259Z,65.77
2023-06-30T01:21:11.230Z,65.57
2023-06-30T01:23:11.660Z,65.75
2023-06-30T01:25:10.915Z,65.74
2023-06-30T01:27:11.691Z,65.86
2023-06-30T01:29:13.104Z,66.10
2023-06-30T01:31:14.010Z,66.17
2023-06-30T01:33:07.619Z,66.25
2023-06-30T01:34:59.330Z,66.06
2023-06-30T01:36:58.438Z,66.43
2023-06-30T01:38:57.766Z,66.46
2023-06-30T01:40:51.294Z,66.29
2023-06-30T01:42:52.243Z,66.37
2023-06-30T01:44:47.896Z,66.56
2023-06-30T01:46:47.567Z,66.32
2023-06-30T01:48:40.960Z,66.65
2023-06-30T01:50:36.314Z,66.73
2023-06-30T01:52:36.890Z,66.74
2023-06-30T01:54:37.807Z,66.98
2023-06-30T01:56:28.337Z,66.90
2023-06-30T01:58:29.316Z,66.98
2023-06-30T02:00:30.218Z,67.07
2023-06-30T02:02:31.084Z,67.00
2023-06-30T02:04:31.616Z,66.98
2023-06-30T02:06:32.382Z,66.84
2023-06-30T02:08:33.298Z,66.63
2023-06-30T02:10:22.608Z,66.36
2023-06-30T02:12:23.385Z,66.51
2023-06-30T02:14:15.581Z,66.59
2023-06-30T02:16:08.578Z,66.74
2023-06-30T02:18:08.250Z,66.83
2023-06-30T02:20:08.561Z,66.65
2023-06-30T02:22:09.456Z,66.75
2023-06-30T02:24:10.534Z,66.51
2023-06-30T02:26:11.400Z,66.51
2023-06-30T02:28:10.617Z,66.41
2023-06-30T02:30:11.445Z,66.23
2023-06-30T02:32:10.580Z,66.24
2023-06-30T02:34:11.074Z,66.21
2023-06-30T02:36:11.847Z,66.21
2023-06-30T02:38:05.431Z,66.12
2023-06-30T02:40:06.443Z,66.12
2023-06-30T02:42:06.028Z,66.07
2023-06-30T02:44:06.727Z,66.06
2023-06-30T02:46:07.350Z,65.81
2023-06-30T02:48:08.387Z,65.77
2023-06-30T02:50:09.023Z,65.44
2023-06-30T02:52:09.677Z,65.52
2023-06-30T02:54:10.427Z,65.09
2023-06-30T02:56:11.339Z,64.83
2023-06-30T02:58:04.865Z,64.71
2023-06-30T03:00:02.319Z,64.69
2023-06-30T03:01:55.374Z,64.41
2023-06-30T03:03:54.254Z,64.57
2023-06-30T03:05:40.531Z,64.86
2023-06-30T03:07:41.139Z,64.43
2023-06-30T03:09:27.320Z,64.53
2023-06-30T03:11:15.268Z,64.44
2023-06-30T03:13:09.992Z,64.58
2023-06-30T03:15:10.783Z,64.74
2023-06-30T03:17:06.322Z,65.09
2023-06-30T03:19:06.266Z,65.09
2023-06-30T03:20:58.026Z,65.16
2023-06-30T03:22:58.597Z,65.01
2023-06-30T03:24:59.474Z,65.07
2023-06-30T03:27:00.076Z,65.11
2023-06-30T03:29:01.018Z,65.02
2023-06-30T03:31:00.259Z,65.01
2023-06-30T03:32:54.368Z,65.07
2023-06-30T03:34:47.797Z,64.67
2023-06-30T03:36:49.009Z,64.09
2023-06-30T03:38:49.381Z,64.37
2023-06-30T03:40:37.489Z,64.18
2023-06-30T03:42:38.182Z,64.22
2023-06-30T03:44:14.361Z,63.98
2023-06-30T03:46:04.732Z,63.80
2023-06-30T03:48:05.167Z,63.31
2023-06-30T03:50:04.619Z,62.81
2023-06-30T03:51:57.898Z,62.83
2023-06-30T03:53:51.159Z,62.44
2023-06-30T03:55:50.394Z,62.31
2023-06-30T03:57:40.742Z,62.22
2023-06-30T03:59:41.285Z,62.07
2023-06-30T04:01:41.962Z,62.03
2023-06-30T04:03:42.799Z,61.78
2023-06-30T04:05:35.955Z,61.80
2023-06-30T04:07:26.828Z,61.43
2023-06-30T04:09:27.915Z,61.58
2023-06-30T04:11:28.885Z,61.44
2023-06-30T04:13:29.417Z,61.30
2023-06-30T04:15:28.928Z,61.26
2023-06-30T04:17:29.547Z,61.13
2023-06-30T04:19:30.516Z,61.00
2023-06-30T04:21:29.383Z,60.98
2023-06-30T04:23:29.953Z,60.90
2023-06-30T04:25:30.243Z,60.87
2023-06-30T04:27:24.991Z,60.58
2023-06-30T04:29:24.748Z,60.40
2023-06-30T04:31:25.915Z,60.30
2023-06-30T04:33:26.502Z,59.81
2023-06-30T04:35:27.232Z,60.08
2023-06-30T04:37:17.708Z,59.87
2023-06-30T04:39:18.682Z,59.76
2023-06-30T04:41:19.643Z,59.58
2023-06-30T04:43:12.762Z,59.07
2023-06-30T04:45:08.336Z,59.19
2023-06-30T04:47:08.783Z,59.12
2023-06-30T04:49:03.066Z,59.02
2023-06-30T04:51:04.026Z,58.54
2023-06-30T04:53:04.454Z,58.64
2023-06-30T04:55:03.463Z,58.55
2023-06-30T04:57:04.410Z,58.20
2023-06-30T04:59:04.860Z,58.01
2023-06-30T05:00:58.508Z,57.70
2023-06-30T05:02:51.490Z,57.65
2023-06-30T05:04:41.128Z,57.51
2023-06-30T05:06:41.952Z,57.61
2023-06-30T05:08:31.595Z,57.38
2023-06-30T05:10:32.315Z,57.05
2023-06-30T05:12:26.101Z,57.00
2023-06-30T05:14:19.241Z,56.89
2023-06-30T05:16:19.949Z,56.91
2023-06-30T05:18:13.475Z,57.02
2023-06-30T05:20:14.240Z,56.47
2023-06-30T05:22:14.816Z,56.59
2023-06-30T05:24:09.235Z,56.07
2023-06-30T05:26:02.568Z,55.85
2023-06-30T05:28:03.186Z,55.19
2023-06-30T05:30:03.931Z,55.46
2023-06-30T05:31:47.418Z,54.99
2023-06-30T05:33:47.981Z,54.98
2023-06-30T05:35:48.730Z,54.96
2023-06-30T05:37:40.686Z,54.73
2023-06-30T05:39:41.527Z,54.29
2023-06-30T05:41:42.275Z,53.68
2023-06-30T05:43:41.468Z,53.90
2023-06-30T05:45:42.292Z,53.37
2023-06-30T05:47:33.159Z,53.21
2023-06-30T05:49:26.277Z,52.77
2023-06-30T05:51:27.444Z,52.29
2023-06-30T05:53:26.882Z,52.06
2023-06-30T05:55:27.374Z,51.44
2023-06-30T05:57:28.320Z,50.90
2023-06-30T05:59:29.564Z,50.71
2023-06-30T06:01:29.944Z,50.32
2023-06-30T06:03:31.083Z,50.45
2023-06-30T06:05:32.268Z,50.14
2023-06-30T06:07:33.286Z,50.36
2023-06-30T06:09:33.946Z,50.14
2023-06-30T06:11:34.504Z,50.02
2023-06-30T06:13:35.395Z,50.85
2023-06-30T06:15:36.150Z,49.03
2023-06-30T06:17:37.074Z,49.10
2023-06-30T06:19:37.910Z,48.90
2023-06-30T06:21:39.132Z,48.61
2023-06-30T06:23:39.724Z,48.21
2023-06-30T06:25:40.474Z,47.34
2023-06-30T06:27:31.120Z,47.09
2023-06-30T06:29:31.805Z,47.47
2023-06-30T06:31:25.551Z,46.97
2023-06-30T06:33:26.797Z,46.56
2023-06-30T06:35:27.678Z,46.28
2023-06-30T06:37:20.299Z,46.53
2023-06-30T06:39:20.664Z,45.99
2023-06-30T06:41:16.301Z,45.93
2023-06-30T06:43:09.936Z,45.95
2023-06-30T06:45:10.577Z,46.35
2023-06-30T06:47:11.302Z,45.53
2023-06-30T06:49:11.752Z,45.68
2023-06-30T06:51:12.407Z,45.56
2023-06-30T06:53:13.302Z,44.73
2023-06-30T06:55:14.107Z,44.45
2023-06-30T06:57:04.606Z,44.76
2023-06-30T06:59:04.720Z,44.51
2023-06-30T07:01:04.995Z,44.94
2023-06-30T07:03:05.475Z,44.82
2023-06-30T07:04:59.322Z,45.68
2023-06-30T07:06:53.993Z,44.50
2023-06-30T07:08:46.804Z,45.06
2023-06-30T07:10:46.359Z,43.80
2023-06-30T07:12:47.369Z,44.06
2023-06-30T07:14:50.121Z,44.22
2023-06-30T07:16:50.897Z,43.72
2023-06-30T07:18:40.465Z,43.20
2023-06-30T07:20:41.146Z,42.87
2023-06-30T07:22:42.194Z,43.54
2023-06-30T07:24:43.932Z,43.43
2023-06-30T07:26:37.895Z,43.10
2023-06-30T07:28:38.668Z,43.32
2023-06-30T07:30:39.315Z,43.26
2023-06-30T07:32:30.129Z,42.94
2023-06-30T07:34:30.748Z,43.06
2023-06-30T07:36:30.548Z,42.88
2023-06-30T07:38:31.048Z,43.19
2023-06-30T07:40:45.887Z,42.97
2023-06-30T07:42:43.946Z,42.28
2023-06-30T07:44:44.654Z,41.74
2023-06-30T07:46:38.191Z,42.38
2023-06-30T07:48:38.842Z,43.23
2023-06-30T07:50:38.762Z,42.83
2023-06-30T07:52:40.409Z,42.52
2023-06-30T07:54:42.514Z,42.25
2023-06-30T07:56:43.937Z,41.74
2023-06-30T07:58:38.131Z,41.37
2023-06-30T08:00:31.631Z,41.07
2023-06-30T08:02:32.450Z,41.07
2023-06-30T08:04:33.291Z,41.37
2023-06-30T08:06:16.208Z,42.39
2023-06-30T08:08:09.716Z,42.42
2023-06-30T08:10:10.391Z,42.48
2023-06-30T08:12:10.809Z,41.30
2023-06-30T08:14:11.444Z,40.82
2023-06-30T08:16:10.572Z,40.89
2023-06-30T08:18:11.332Z,41.18
2023-06-30T08:20:12.261Z,40.80
2023-06-30T08:22:13.451Z,40.76
2023-06-30T08:24:08.245Z,40.52
2023-06-30T08:26:09.055Z,40.38
2023-06-30T08:28:08.476Z,39.88
2023-06-30T08:30:08.882Z,40.15
2023-06-30T08:31:54.924Z,40.39
2023-06-30T08:33:54.639Z,39.72
2023-06-30T08:35:52.111Z,39.31
2023-06-30T08:37:45.483Z,38.85
2023-06-30T08:39:46.197Z,39.31
2023-06-30T08:41:39.123Z,39.27
2023-06-30T08:43:39.728Z,39.08
2023-06-30T08:45:39.212Z,38.84
2023-06-30T08:47:39.927Z,38.49
2023-06-30T08:49:40.927Z,38.08
2023-06-30T08:51:40.366Z,37.94
2023-06-30T08:53:39.800Z,37.93
2023-06-30T08:55:40.403Z,38.30
2023-06-30T08:57:33.937Z,38.50
2023-06-30T08:59:30.573Z,36.89
2023-06-30T09:01:31.102Z,36.09
2023-06-30T09:03:31.836Z,35.85
2023-06-30T09:05:32.765Z,35.87
2023-06-30T09:07:33.878Z,36.21
2023-06-30T09:09:34.178Z,36.08
2023-06-30T09:11:34.810Z,36.41
2023-06-30T09:13:35.352Z,35.85
2023-06-30T09:15:36.047Z,36.96
2023-06-30T09:17:36.822Z,36.74
2023-06-30T09:19:37.751Z,36.33
2023-06-30T09:21:38.397Z,36.97
2023-06-30T09:23:39.430Z,36.57
2023-06-30T09:25:39.799Z,37.41
2023-06-30T09:27:40.800Z,37.86
2023-06-30T09:29:41.758Z,37.65
2023-06-30T09:31:28.101Z,37.01
2023-06-30T09:33:20.179Z,37.27
2023-06-30T09:35:19.542Z,37.83
2023-06-30T09:37:19.721Z,37.00
2023-06-30T09:39:09.640Z,36.15
2023-06-30T09:40:53.259Z,35.29
2023-06-30T09:42:38.293Z,35.64
2023-06-30T09:44:39.119Z,34.76
2023-06-30T09:46:40.148Z,35.47
2023-06-30T09:48:41.432Z,35.62
2023-06-30T09:50:41.990Z,35.51
2023-06-30T09:52:42.723Z,34.72
2023-06-30T09:54:43.795Z,35.00
2023-06-30T09:56:43.914Z,35.15
2023-06-30T09:58:44.602Z,34.59
2023-06-30T10:00:38.357Z,34.61
2023-06-30T10:02:31.633Z,34.47
2023-06-30T10:04:32.551Z,34.07
2023-06-30T10:06:33.720Z,33.90
2023-06-30T10:08:34.383Z,33.99
2023-06-30T10:10:35.058Z,34.41
2023-06-30T10:12:35.997Z,34.20
2023-06-30T10:14:26.250Z,34.21
2023-06-30T10:16:27.530Z,34.22
2023-06-30T10:18:28.284Z,34.56
2023-06-30T10:20:42.339Z,35.02
2023-06-30T10:22:40.112Z,35.57
2023-06-30T10:24:28.659Z,34.79
2023-06-30T10:26:14.075Z,34.87
2023-06-30T10:28:14.395Z,34.56
2023-06-30T10:29:49.526Z,34.55
2023-06-30T10:31:43.906Z,35.01
2023-06-30T10:33:38.510Z,35.12
2023-06-30T10:35:39.095Z,35.25
2023-06-30T10:37:17.074Z,35.17
2023-06-30T10:39:02.303Z,35.23
2023-06-30T10:40:56.396Z,35.34
2023-06-30T10:42:56.900Z,35.34
2023-06-30T10:44:50.058Z,35.55
2023-06-30T10:46:50.907Z,35.59
2023-06-30T10:48:43.984Z,36.89
2023-06-30T10:50:44.859Z,35.87
2023-06-30T10:52:45.796Z,35.85
2023-06-30T10:54:35.061Z,35.31
2023-06-30T10:55:58.868Z,35.73
2023-06-30T10:57:20.826Z,36.22
2023-06-30T10:59:13.779Z,36.27
2023-06-30T11:00:58.824Z,36.26
2023-06-30T11:02:23.016Z,36.62
2023-06-30T11:04:06.229Z,35.94
2023-06-30T11:05:33.743Z,36.40
2023-06-30T11:09:06.605Z,35.86
2023-06-30T11:10:39.858Z,36.52
2023-06-30T11:12:13.231Z,36.18
2023-06-30T11:13:58.017Z,35.99
2023-06-30T11:15:42.499Z,35.84
2023-06-30T11:17:16.223Z,35.82
2023-06-30T11:18:45.553Z,36.45
2023-06-30T11:20:07.762Z,36.65
2023-06-30T11:21:48.660Z,36.70
2023-06-30T11:23:13.028Z,37.21
2023-06-30T11:24:37.079Z,36.85
2023-06-30T11:26:18.189Z,36.71
2023-06-30T11:27:51.791Z,36.93
2023-06-30T11:29:25.224Z,37.11
2023-06-30T11:30:58.901Z,36.87
2023-06-30T11:32:39.472Z,36.96
2023-06-30T11:34:15.848Z,37.17
2023-06-30T11:36:00.829Z,37.78
2023-06-30T11:37:42.708Z,37.52
2023-06-30T11:39:11.857Z,38.29
2023-06-30T11:40:45.024Z,38.26
2023-06-30T11:42:39.313Z,38.83
2023-06-30T11:46:24.788Z,38.38
2023-06-30T11:47:59.920Z,38.45
2023-06-30T11:49:36.397Z,38.51
2023-06-30T11:51:17.825Z,38.89
2023-06-30T11:53:11.204Z,38.66
2023-06-30T11:54:42.604Z,39.10
2023-06-30T11:56:18.280Z,38.84
2023-06-30T11:57:51.537Z,38.61
2023-06-30T11:59:26.059Z,38.88
2023-06-30T12:00:57.441Z,38.47
2023-06-30T12:02:30.932Z,38.14
2023-06-30T12:04:02.447Z,37.62
2023-06-30T12:05:43.421Z,37.49
2023-06-30T12:07:13.242Z,37.54
2023-06-30T12:08:41.700Z,37.27
2023-06-30T12:10:11.198Z,37.67
2023-06-30T12:11:42.387Z,37.07
2023-06-30T12:13:15.941Z,36.99
2023-06-30T12:14:52.653Z,36.98
2023-06-30T12:16:37.903Z,36.85
2023-06-30T12:18:18.433Z,36.78
2023-06-30T12:19:51.516Z,36.72
2023-06-30T12:21:24.929Z,37.07
2023-06-30T12:23:10.359Z,37.70
2023-06-30T12:24:46.136Z,37.22
2023-06-30T12:26:27.984Z,37.53
2023-06-30T12:28:22.503Z,37.59
2023-06-30T12:29:48.961Z,37.88
2023-06-30T12:31:20.534Z,37.85
2023-06-30T12:33:01.388Z,37.65
2023-06-30T12:34:32.854Z,37.89
2023-06-30T12:35:59.496Z,37.24
2023-06-30T12:37:44.570Z,37.40
2023-06-30T12:39:16.121Z,37.30
2023-06-30T12:40:50.613Z,37.39
2023-06-30T12:42:14.666Z,37.32
2023-06-30T12:43:59.973Z,37.04
2023-06-30T12:45:44.808Z,37.12
2023-06-30T12:47:20.533Z,36.80
2023-06-30T12:48:57.008Z,35.88
2023-06-30T12:50:30.463Z,35.82
2023-06-30T12:51:54.801Z,35.46
2023-06-30T12:53:30.812Z,33.77
2023-06-30T12:54:55.032Z,32.73
2023-06-30T12:56:31.810Z,32.05
2023-06-30T12:58:17.213Z,31.14
2023-06-30T13:00:02.360Z,29.94
2023-06-30T13:01:29.095Z,29.19
2023-06-30T13:02:55.359Z,29.03
2023-06-30T13:04:40.713Z,29.55
2023-06-30T13:06:15.238Z,29.89
2023-06-30T13:07:48.281Z,30.45
2023-06-30T13:09:29.468Z,30.67
2023-06-30T13:11:06.172Z,30.63
2023-06-30T13:12:30.245Z,31.11
2023-06-30T13:13:52.100Z,31.74
2023-06-30T13:20:13.251Z,33.15
2023-06-30T13:21:48.516Z,33.45
2023-06-30T13:23:36.337Z,33.76
2023-06-30T13:25:23.590Z,33.98
2023-06-30T13:26:57.070Z,34.55
2023-06-30T13:28:30.856Z,34.91
2023-06-30T13:30:02.371Z,34.76
2023-06-30T13:31:50.691Z,34.58
2023-06-30T13:33:26.302Z,35.06
2023-06-30T13:35:01.408Z,35.58
2023-06-30T13:36:34.676Z,35.53
2023-06-30T13:38:19.657Z,35.28
2023-06-30T13:39:43.824Z,35.41
2023-06-30T13:41:30.245Z,35.43
2023-06-30T13:43:06.798Z,35.92
2023-06-30T13:44:28.466Z,36.21
2023-06-30T13:45:50.562Z,36.02
2023-06-30T13:47:12.106Z,36.21
2023-06-30T13:48:36.365Z,36.26
2023-06-30T13:50:00.122Z,35.79
2023-06-30T13:51:24.390Z,36.06
2023-06-30T13:52:48.750Z,35.93
2023-06-30T13:54:22.181Z,35.61
2023-06-30T13:55:51.364Z,35.94
2023-06-30T13:57:26.837Z,35.97
2023-06-30T13:58:50.444Z,36.06
2023-06-30T14:00:27.107Z,36.09
2023-06-30T14:01:48.943Z,36.69
2023-06-30T14:03:20.677Z,36.92
2023-06-30T14:04:42.427Z,37.24
2023-06-30T14:06:17.615Z,36.80
2023-06-30T14:07:42.111Z,37.26
2023-06-30T14:09:13.358Z,37.88
2023-06-30T14:10:42.961Z,37.46
2023-06-30T14:12:19.807Z,38.16
2023-06-30T14:13:53.145Z,38.13
2023-06-30T14:15:38.889Z,38.53
2023-06-30T14:17:12.263Z,38.50
2023-06-30T14:18:41.416Z,38.73
2023-06-30T14:20:10.489Z,38.65
2023-06-30T14:21:44.046Z,38.92
2023-06-30T14:23:17.663Z,39.01
2023-06-30T14:24:39.260Z,39.23
2023-06-30T14:26:01.801Z,39.45
2023-06-30T14:27:24.178Z,39.63
2023-06-30T14:28:57.445Z,39.99
2023-06-30T14:30:33.664Z,39.81
2023-06-30T14:32:09.306Z,40.14
2023-06-30T14:33:38.053Z,40.21
2023-06-30T14:35:11.286Z,40.45
2023-06-30T14:36:46.470Z,40.58
2023-06-30T14:38:31.388Z,40.48
2023-06-30T14:40:04.702Z,40.80
2023-06-30T14:41:40.021Z,40.71
2023-06-30T14:43:15.964Z,40.65
2023-06-30T14:45:00.814Z,40.52
2023-06-30T14:46:30.078Z,40.66
2023-06-30T14:48:03.054Z,41.01
2023-06-30T14:49:45.156Z,41.02
2023-06-30T14:51:18.390Z,41.21
2023-06-30T14:52:58.713Z,41.50
2023-06-30T14:54:44.885Z,41.51
2023-06-30T14:56:18.097Z,41.67
2023-06-30T14:57:58.570Z,41.64
2023-06-30T14:59:53.117Z,41.92
2023-06-30T15:01:26.436Z,42.04
2023-06-30T15:03:07.172Z,42.28
2023-06-30T15:04:51.917Z,42.28
2023-06-30T15:06:16.097Z,42.70
2023-06-30T15:07:56.925Z,42.76
2023-06-30T15:09:45.110Z,42.91
2023-06-30T15:11:18.390Z,42.81
2023-06-30T15:12:58.703Z,43.03
2023-06-30T15:14:27.923Z,42.97
2023-06-30T15:16:03.435Z,43.07
2023-06-30T15:17:32.438Z,43.33
2023-06-30T15:19:08.339Z,43.49
2023-06-30T15:20:53.372Z,43.64
2023-06-30T15:22:27.088Z,43.53
2023-06-30T15:24:00.782Z,43.37
2023-06-30T15:25:39.075Z,43.43
2023-06-30T15:27:28.445Z,43.53
2023-06-30T15:29:01.545Z,43.82
2023-06-30T15:30:37.970Z,43.89
2023-06-30T15:32:26.091Z,43.75
2023-06-30T15:34:01.405Z,43.87
2023-06-30T15:35:37.964Z,44.14
2023-06-30T15:37:18.575Z,44.38
2023-06-30T15:39:03.616Z,44.28
2023-06-30T15:40:48.811Z,43.62
2023-06-30T15:42:38.146Z,43.55
2023-06-30T15:44:11.601Z,43.47
2023-06-30T15:45:56.147Z,43.54
2023-06-30T15:47:25.397Z,43.49
2023-06-30T15:49:06.481Z,43.48
2023-06-30T15:50:28.265Z,43.67
2023-06-30T15:52:04.048Z,44.11
2023-06-30T15:53:32.997Z,43.56
2023-06-30T15:54:56.480Z,43.60
2023-06-30T15:56:33.067Z,43.29
2023-06-30T15:58:04.500Z,43.62
2023-06-30T15:59:37.967Z,43.35
2023-06-30T16:01:09.463Z,43.55
2023-06-30T16:02:54.606Z,43.48
2023-06-30T16:04:39.758Z,43.41
2023-06-30T16:06:13.096Z,43.93
2023-06-30T16:07:46.561Z,43.74
2023-06-30T16:09:22.079Z,44.24
2023-06-30T16:10:46.267Z,44.31
2023-06-30T16:12:32.305Z,44.55
2023-06-30T16:14:17.409Z,44.44
2023-06-30T16:15:51.004Z,44.48
2023-06-30T16:17:20.054Z,44.86
2023-06-30T16:18:53.177Z,44.19
2023-06-30T16:20:15.278Z,44.20
2023-06-30T16:21:51.759Z,44.21
2023-06-30T16:23:36.524Z,44.40
2023-06-30T16:25:00.114Z,44.79
2023-06-30T16:26:33.409Z,44.89
2023-06-30T16:27:54.788Z,44.89
2023-06-30T16:29:18.973Z,44.89
2023-06-30T16:30:54.532Z,45.03
2023-06-30T16:32:39.989Z,45.49
2023-06-30T16:34:13.433Z,45.19
2023-06-30T16:35:35.052Z,45.24
2023-06-30T16:36:58.745Z,45.06
2023-06-30T16:38:53.141Z,45.65
2023-06-30T16:40:18.605Z,45.67
2023-06-30T17:04:15.121Z,47.52
2023-06-30T17:06:00.153Z,47.79
2023-06-30T17:07:54.160Z,48.18
2023-06-30T17:09:23.187Z,48.32
2023-06-30T17:10:58.345Z,48.55
2023-06-30T17:12:31.791Z,48.43
2023-06-30T17:14:01.663Z,48.50
2023-06-30T17:15:30.666Z,48.36
2023-06-30T17:16:54.355Z,48.44
2023-06-30T17:18:38.809Z,48.37
2023-06-30T17:20:03.754Z,48.52
2023-06-30T17:21:40.373Z,48.59
2023-06-30T17:23:16.348Z,48.90
2023-06-30T17:25:04.830Z,48.93
2023-06-30T17:26:41.331Z,49.23
2023-06-30T17:28:26.258Z,49.06
2023-06-30T17:29:59.329Z,49.24
2023-06-30T17:31:44.077Z,49.72
2023-06-30T17:33:33.054Z,50.26
2023-06-30T17:35:06.373Z,50.11
2023-06-30T17:36:39.951Z,50.53
2023-06-30T17:38:14.783Z,51.81
2023-06-30T17:39:43.561Z,52.61
2023-06-30T17:41:26.166Z,53.66
2023-06-30T17:42:59.625Z,55.03
2023-06-30T17:44:52.849Z,55.88
2023-06-30T17:46:26.316Z,56.39
2023-06-30T17:48:11.570Z,57.07
2023-06-30T17:49:56.525Z,58.21
2023-06-30T17:51:25.931Z,58.49
2023-06-30T17:53:10.388Z,58.59
2023-06-30T17:54:54.950Z,58.69
2023-06-30T17:56:21.122Z,59.40
2023-06-30T17:57:54.543Z,59.66
2023-06-30T17:59:30.064Z,60.05
2023-06-30T18:01:14.780Z,60.65
2023-06-30T18:02:45.841Z,60.94
2023-06-30T18:04:26.705Z,61.14
2023-06-30T18:05:59.699Z,60.87
2023-06-30T18:07:32.810Z,60.56
2023-06-30T18:08:56.730Z,61.37
2023-06-30T18:10:30.039Z,61.46
2023-06-30T18:12:03.404Z,61.69
2023-06-30T18:13:41.399Z,61.86
2023-06-30T18:15:02.988Z,61.37
2023-06-30T18:16:33.953Z,61.60
2023-06-30T18:18:18.685Z,61.54
2023-06-30T18:20:03.414Z,61.67
2023-06-30T18:21:37.430Z,61.58
2023-06-30T18:23:18.323Z,61.94
2023-06-30T18:24:51.442Z,62.24
2023-06-30T18:26:26.694Z,62.51
2023-06-30T18:28:02.198Z,62.67
2023-06-30T18:29:47.864Z,62.60
2023-06-30T18:31:21.394Z,62.91
2023-06-30T18:32:42.879Z,62.97
2023-06-30T18:34:28.577Z,63.35
2023-06-30T18:36:01.712Z,63.39
2023-06-30T18:37:35.703Z,63.56
2023-06-30T18:39:00.947Z,63.47
2023-06-30T18:40:47.362Z,63.39
2023-06-30T18:42:20.689Z,63.81
2023-06-30T18:43:56.049Z,64.06
2023-06-30T18:45:29.515Z,63.96
2023-06-30T18:47:09.522Z,64.02
2023-06-30T18:48:54.338Z,63.99
2023-06-30T18:50:25.193Z,63.64
2023-06-30T18:52:00.419Z,63.08
2023-06-30T18:53:24.239Z,62.99
2023-06-30T18:54:59.570Z,62.97
2023-06-30T18:56:43.014Z,63.04
2023-06-30T18:58:04.550Z,63.02
2023-06-30T18:59:49.348Z,63.15
2023-06-30T19:01:24.857Z,63.34
2023-06-30T19:02:53.699Z,63.29
2023-06-30T19:04:46.181Z,63.23
2023-06-30T19:06:19.396Z,63.41
2023-06-30T19:07:52.476Z,63.50
2023-06-30T19:09:33.004Z,63.72
2023-06-30T19:11:05.767Z,64.01
2023-06-30T19:12:27.402Z,64.32
2023-06-30T19:14:02.496Z,64.71
2023-06-30T19:15:29.024Z,64.79
2023-06-30T19:16:52.716Z,64.81
2023-06-30T19:18:28.919Z,64.94
2023-06-30T19:20:02.061Z,65.01
2023-06-30T19:21:31.270Z,65.44
2023-06-30T19:23:16.209Z,65.53
2023-06-30T19:24:56.186Z,65.42
2023-06-30T19:26:41.033Z,65.68
2023-06-30T19:28:26.173Z,65.79
2023-06-30T19:30:20.186Z,66.09
2023-06-30T19:31:53.150Z,66.05
2023-06-30T19:33:26.136Z,66.01
2023-06-30T19:35:10.771Z,65.99
2023-06-30T19:36:56.169Z,65.61
2023-06-30T19:38:18.063Z,65.08
2023-06-30T19:39:58.275Z,64.93
2023-06-30T19:41:31.513Z,64.68
2023-06-30T19:43:16.189Z,64.79
2023-06-30T19:44:49.250Z,64.69
2023-06-30T19:46:34.461Z,64.63
2023-06-30T19:48:09.973Z,64.56
2023-06-30T19:49:45.171Z,64.48
2023-06-30T19:51:11.527Z,64.34
2023-06-30T19:52:56.119Z,64.02
2023-06-30T19:54:29.659Z,63.63
2023-06-30T19:56:14.671Z,63.76
2023-06-30T19:57:59.290Z,63.49
2023-06-30T19:59:39.849Z,63.28
2023-06-30T20:01:24.746Z,63.40
2023-06-30T20:02:58.268Z,63.68
2023-06-30T20:04:31.552Z,64.37
2023-06-30T20:06:04.775Z,65.01
2023-06-30T20:07:37.854Z,65.54
2023-06-30T20:09:11.608Z,65.93
2023-06-30T20:10:44.671Z,66.58
2023-06-30T20:12:18.130Z,66.97
2023-06-30T20:13:51.272Z,67.37
2023-06-30T20:15:24.580Z,67.97
2023-06-30T20:16:53.301Z,68.43
2023-06-30T20:18:38.061Z,68.83
2023-06-30T20:20:09.230Z,69.34
2023-06-30T20:21:44.518Z,69.65
2023-06-30T20:23:24.948Z,70.00
2023-06-30T20:24:58.014Z,70.26
2023-06-30T20:26:33.560Z,70.40
2023-06-30T20:28:06.658Z,70.76
2023-06-30T20:29:51.723Z,71.32
2023-06-30T20:31:25.524Z,71.46
2023-06-30T20:32:54.653Z,71.77
2023-06-30T20:34:28.415Z,72.06
2023-06-30T20:36:04.041Z,72.56
2023-06-30T20:37:37.901Z,73.01
2023-06-30T20:39:11.421Z,73.10
2023-06-30T20:40:51.562Z,73.49
2023-06-30T20:42:25.942Z,73.71
2023-06-30T20:44:00.996Z,74.14
2023-06-30T20:45:45.965Z,74.09
2023-06-30T20:47:19.185Z,74.65
2023-06-30T20:48:48.271Z,74.55
2023-06-30T20:50:33.032Z,74.82
2023-06-30T20:52:17.633Z,75.09
2023-06-30T20:53:41.414Z,75.20
2023-06-30T20:55:14.964Z,75.30
2023-06-30T20:56:50.489Z,75.43
2023-06-30T20:58:21.440Z,75.72
2023-06-30T21:00:06.341Z,76.03
2023-06-30T21:01:39.749Z,75.96
2023-06-30T21:03:15.266Z,76.15
2023-06-30T21:04:38.891Z,76.27
2023-06-30T21:06:14.781Z,76.38
2023-06-30T21:07:38.707Z,76.31
2023-06-30T21:09:22.647Z,76.49
2023-06-30T21:10:57.955Z,76.53
2023-06-30T21:12:40.189Z,76.67
2023-06-30T21:14:24.950Z,77.04
2023-06-30T21:15:48.853Z,76.94
2023-06-30T21:17:31.240Z,77.05
2023-06-30T21:19:11.614Z,77.33
2023-06-30T21:20:45.642Z,77.19
2023-06-30T21:22:40.255Z,77.37
2023-06-30T21:24:11.227Z,77.46
2023-06-30T21:25:35.316Z,77.43
2023-06-30T21:27:19.959Z,77.58
2023-06-30T21:28:48.733Z,77.58
2023-06-30T21:30:24.354Z,77.66
2023-06-30T21:32:12.577Z,77.87
2023-06-30T21:33:54.764Z,77.76
2023-06-30T21:35:35.659Z,77.83
2023-06-30T21:37:16.268Z,77.76
2023-06-30T21:38:47.086Z,77.59
2023-06-30T21:40:22.439Z,77.66
2023-06-30T21:42:02.789Z,77.79
2023-06-30T21:43:43.244Z,77.62
2023-06-30T21:45:09.620Z,77.79
2023-06-30T21:46:43.673Z,77.65
2023-06-30T21:48:24.257Z,77.54
2023-06-30T21:50:08.816Z,77.55
2023-06-30T21:51:42.005Z,77.72
2023-06-30T21:53:36.217Z,77.82
2023-06-30T21:55:21.023Z,77.86
2023-06-30T21:56:56.258Z,77.93
2023-06-30T21:58:27.387Z,77.94
2023-06-30T22:00:20.093Z,78.04
2023-06-30T22:01:53.175Z,77.98
2023-06-30T22:03:34.025Z,77.96
2023-06-30T22:05:14.943Z,77.99
2023-06-30T22:06:36.593Z,78.06
2023-06-30T22:07:57.871Z,77.71
2023-06-30T22:09:21.849Z,77.63
2023-06-30T22:10:50.964Z,77.73
2023-06-30T22:12:25.318Z,77.75
2023-06-30T22:13:49.651Z,77.81
2023-06-30T22:15:30.503Z,77.70
2023-06-30T22:17:10.717Z,77.59
2023-06-30T22:18:44.196Z,77.79
2023-06-30T22:20:37.956Z,78.08
2023-06-30T22:22:18.319Z,77.94
2023-06-30T22:23:49.392Z,78.00
2023-06-30T22:25:29.899Z,78.03
2023-06-30T22:27:03.539Z,78.03
2023-06-30T22:28:48.031Z,78.12
2023-06-30T22:30:21.278Z,77.93
2023-06-30T22:31:42.570Z,77.89
2023-06-30T22:33:04.269Z,77.87
2023-06-30T22:34:37.655Z,77.84
2023-06-30T22:36:06.417Z,77.68
2023-06-30T22:37:42.071Z,77.70
2023-06-30T22:39:17.644Z,77.74
2023-06-30T22:41:02.314Z,77.61
2023-06-30T22:42:46.976Z,77.52
2023-06-30T22:44:22.965Z,77.67
2023-06-30T22:45:48.025Z,77.66
2023-06-30T22:47:23.659Z,77.72
2023-06-30T22:49:18.218Z,77.63
2023-06-30T22:51:04.079Z,77.43
2023-06-30T22:52:40.869Z,77.56
2023-06-30T22:54:35.253Z,77.60
2023-06-30T22:56:16.266Z,77.60
2023-06-30T22:57:52.226Z,77.77
2023-06-30T22:59:23.456Z,77.88
2023-06-30T23:01:08.444Z,78.02
2023-06-30T23:02:42.157Z,78.13
2023-06-30T23:04:22.812Z,78.23
2023-06-30T23:05:52.217Z,78.17